JAL4 RJTT-LFPG
Flight info
| Callsign | JAL4 |
|---|---|
| Flight time | N/A |
| Altitude | 33000 |
| Route | INUBO Y808 PUTER/N0500F340 A590 PUGAL/N0494F350 A590 POWAL DCT HEDMI DCT NATES DCT ROCET/N0497F370 DCT IDROD DCT CIVED DCT BRW DCT AGMIF DCT 82N060W/M085F390 80N040W 75N020W 69N010W DCT PEMOS/N0488F410 DCT AKOMU DCT VAMEB UL612 MID/N0503F290 Y803 SFD UM605 BIBAX |
| Aircraft | A359/H-SDE2E3GHIJ3J4J5LM1ORWXY/LB1D1 |
Departure
| Time | N/A |
|---|---|
| Airport | Tokyo Haneda International Airport (RJTT) |
Arrival
| Time | 2026-05-04 12:03 |
|---|---|
| Airport | Charles de Gaulle International Airport (LFPG) |
| Time | Latitude | Longitude | Altitude | Speed | Heading |
|---|---|---|---|---|---|
| 2026-05-04 07:33 | 80.60405 | -44.25345 | 39745 ft | 488 kts | 127° |
| 2026-05-04 07:33 | 80.58309 | -44.08984 | 39738 ft | 488 kts | 127° |
| 2026-05-04 07:34 | 80.54106 | -43.76566 | 39736 ft | 488 kts | 127° |
| 2026-05-04 07:34 | 80.49865 | -43.44371 | 39733 ft | 488 kts | 128° |
| 2026-05-04 07:35 | 80.45596 | -43.12467 | 39730 ft | 489 kts | 128° |
| 2026-05-04 07:35 | 80.41294 | -42.80817 | 39727 ft | 489 kts | 128° |
| 2026-05-04 07:36 | 80.36963 | -42.49445 | 39724 ft | 489 kts | 128° |
| 2026-05-04 07:38 | 80.19382 | -41.26862 | 39710 ft | 489 kts | 129° |
| 2026-05-04 07:38 | 80.14910 | -40.96833 | 39713 ft | 489 kts | 130° |
| 2026-05-04 07:39 | 80.10416 | -40.67102 | 39713 ft | 489 kts | 130° |
| 2026-05-04 07:39 | 80.05890 | -40.37600 | 39709 ft | 489 kts | 130° |
| 2026-05-04 07:40 | 80.01341 | -40.08377 | 39711 ft | 489 kts | 130° |
| 2026-05-04 07:40 | 79.96850 | -39.79013 | 39710 ft | 489 kts | 128° |
| 2026-05-04 07:41 | 79.92577 | -39.48707 | 39709 ft | 489 kts | 127° |
| 2026-05-04 07:41 | 79.88271 | -39.18404 | 39711 ft | 489 kts | 128° |
| 2026-05-04 07:42 | 79.83951 | -38.88903 | 39708 ft | 489 kts | 129° |
| 2026-05-04 07:42 | 79.79554 | -38.59545 | 39711 ft | 489 kts | 129° |
| 2026-05-04 07:43 | 79.75129 | -38.30462 | 39707 ft | 489 kts | 129° |
| 2026-05-04 07:43 | 79.70677 | -38.01604 | 39707 ft | 489 kts | 129° |
| 2026-05-04 07:44 | 79.66201 | -37.72994 | 39705 ft | 490 kts | 130° |
| 2026-05-04 07:44 | 79.61697 | -37.44600 | 39706 ft | 490 kts | 130° |
| 2026-05-04 07:45 | 79.57171 | -37.16467 | 39704 ft | 490 kts | 130° |
| 2026-05-04 07:45 | 79.52617 | -36.88551 | 39706 ft | 490 kts | 130° |
| 2026-05-04 07:46 | 79.48042 | -36.60897 | 39705 ft | 490 kts | 131° |
| 2026-05-04 07:46 | 79.43438 | -36.33451 | 39709 ft | 490 kts | 131° |
| 2026-05-04 07:47 | 79.38814 | -36.06256 | 39704 ft | 490 kts | 131° |
| 2026-05-04 07:49 | 79.20088 | -34.99806 | 39701 ft | 490 kts | 132° |
| 2026-05-04 07:49 | 79.15352 | -34.73765 | 39698 ft | 490 kts | 133° |
| 2026-05-04 07:50 | 79.10592 | -34.47941 | 39701 ft | 490 kts | 133° |
| 2026-05-04 07:50 | 79.05809 | -34.22329 | 39699 ft | 490 kts | 133° |
| 2026-05-04 07:51 | 79.01012 | -33.96978 | 39701 ft | 490 kts | 133° |
| 2026-05-04 07:51 | 78.96220 | -33.71976 | 39698 ft | 490 kts | 134° |
| 2026-05-04 07:52 | 78.91375 | -33.47018 | 39698 ft | 490 kts | 134° |
| 2026-05-04 07:52 | 78.86506 | -33.22264 | 39698 ft | 490 kts | 134° |
| 2026-05-04 07:54 | 78.66847 | -32.25419 | 39694 ft | 490 kts | 135° |
| 2026-05-04 07:55 | 78.61880 | -32.01707 | 39692 ft | 490 kts | 135° |
| 2026-05-04 07:55 | 78.56897 | -31.78208 | 39691 ft | 490 kts | 135° |
| 2026-05-04 07:56 | 78.51892 | -31.54908 | 39692 ft | 490 kts | 135° |
| 2026-05-04 07:56 | 78.46870 | -31.31803 | 39688 ft | 490 kts | 136° |
| 2026-05-04 07:57 | 78.41828 | -31.08889 | 39687 ft | 490 kts | 136° |
| 2026-05-04 07:57 | 78.36766 | -30.86155 | 39680 ft | 491 kts | 136° |
| 2026-05-04 07:58 | 78.31688 | -30.63623 | 39678 ft | 491 kts | 136° |
| 2026-05-04 07:58 | 78.26585 | -30.41256 | 39675 ft | 491 kts | 136° |
| 2026-05-04 07:59 | 78.21466 | -30.19097 | 39670 ft | 491 kts | 137° |
| 2026-05-04 07:59 | 78.16328 | -29.97101 | 39668 ft | 491 kts | 137° |
| 2026-05-04 08:00 | 78.11209 | -29.75449 | 39666 ft | 491 kts | 137° |
| 2026-05-04 08:02 | 77.90395 | -28.89960 | 39646 ft | 493 kts | 138° |
| 2026-05-04 08:02 | 77.85140 | -28.68988 | 39649 ft | 493 kts | 138° |
| 2026-05-04 08:03 | 77.79873 | -28.48210 | 39643 ft | 493 kts | 138° |
| 2026-05-04 08:03 | 77.74587 | -28.27599 | 39640 ft | 493 kts | 138° |
| 2026-05-04 08:04 | 77.70175 | -28.10568 | 39634 ft | 494 kts | 139° |
| 2026-05-04 08:04 | 77.64857 | -27.90260 | 39632 ft | 494 kts | 139° |
| 2026-05-04 08:05 | 77.59519 | -27.70110 | 39628 ft | 494 kts | 139° |
| 2026-05-04 08:05 | 77.54159 | -27.50095 | 39624 ft | 494 kts | 139° |
| 2026-05-04 08:06 | 77.48788 | -27.30260 | 39620 ft | 495 kts | 139° |
| 2026-05-04 08:06 | 77.43395 | -27.10564 | 39618 ft | 495 kts | 140° |
| 2026-05-04 08:08 | 77.21653 | -26.33358 | 39595 ft | 496 kts | 140° |
| 2026-05-04 08:11 | 76.96886 | -25.49361 | 39570 ft | 497 kts | 141° |
| 2026-05-04 08:11 | 76.88555 | -25.21984 | 39557 ft | 497 kts | 141° |
| 2026-05-04 08:12 | 76.82983 | -25.03944 | 39542 ft | 498 kts | 141° |
| 2026-05-04 08:12 | 76.77429 | -24.86143 | 39534 ft | 498 kts | 142° |
| 2026-05-04 08:13 | 76.71829 | -24.68366 | 39522 ft | 498 kts | 141° |
| 2026-05-04 08:13 | 76.66211 | -24.50720 | 39513 ft | 499 kts | 142° |
| 2026-05-04 08:14 | 76.60577 | -24.33207 | 39504 ft | 499 kts | 142° |
| 2026-05-04 08:16 | 76.37881 | -23.64484 | 39490 ft | 500 kts | 143° |
| 2026-05-04 08:16 | 76.32174 | -23.47641 | 39486 ft | 500 kts | 144° |
| 2026-05-04 08:17 | 76.26448 | -23.30914 | 39488 ft | 501 kts | 144° |
| 2026-05-04 08:17 | 76.20713 | -23.14327 | 39486 ft | 501 kts | 144° |
| 2026-05-04 08:19 | 75.97622 | -22.49190 | 39477 ft | 502 kts | 144° |
| 2026-05-04 08:20 | 75.91805 | -22.33196 | 39470 ft | 503 kts | 144° |
| 2026-05-04 08:20 | 75.85973 | -22.17325 | 39462 ft | 503 kts | 144° |
| 2026-05-04 08:21 | 75.80133 | -22.01572 | 39453 ft | 504 kts | 144° |
| 2026-05-04 08:21 | 75.74276 | -21.85935 | 39435 ft | 504 kts | 145° |
| 2026-05-04 08:22 | 75.68402 | -21.70398 | 39429 ft | 504 kts | 145° |
| 2026-05-04 08:24 | 75.44856 | -21.09587 | 39389 ft | 505 kts | 146° |
| 2026-05-04 08:24 | 75.38918 | -20.94623 | 39381 ft | 505 kts | 146° |
| 2026-05-04 08:25 | 75.32971 | -20.79780 | 39375 ft | 505 kts | 146° |
| 2026-05-04 08:25 | 75.27019 | -20.65068 | 39362 ft | 506 kts | 146° |
| 2026-05-04 08:27 | 75.03070 | -20.07243 | 39345 ft | 507 kts | 147° |
| 2026-05-04 08:28 | 74.97047 | -19.92984 | 39342 ft | 507 kts | 146° |
| 2026-05-04 08:28 | 74.91057 | -19.78582 | 39341 ft | 508 kts | 146° |
| 2026-05-04 08:29 | 74.85073 | -19.64258 | 39334 ft | 508 kts | 146° |
| 2026-05-04 08:31 | 74.60982 | -19.08261 | 39317 ft | 509 kts | 147° |
| 2026-05-04 08:33 | 74.36661 | -18.53752 | 39292 ft | 510 kts | 148° |
| 2026-05-04 08:35 | 74.12147 | -18.00740 | 39277 ft | 511 kts | 148° |
| 2026-05-04 08:35 | 74.05994 | -17.87741 | 39269 ft | 512 kts | 148° |
| 2026-05-04 08:37 | 73.84354 | -17.42876 | 39255 ft | 513 kts | 149° |
| 2026-05-04 08:38 | 73.78154 | -17.30261 | 39250 ft | 513 kts | 149° |
| 2026-05-04 08:38 | 73.71943 | -17.17742 | 39246 ft | 513 kts | 149° |
| 2026-05-04 08:40 | 73.47000 | -16.68533 | 39222 ft | 514 kts | 150° |
| 2026-05-04 08:41 | 73.40734 | -16.56428 | 39219 ft | 515 kts | 150° |
| 2026-05-04 08:41 | 73.34450 | -16.44390 | 39210 ft | 515 kts | 150° |
| 2026-05-04 08:42 | 73.28159 | -16.32442 | 39207 ft | 515 kts | 150° |
| 2026-05-04 08:42 | 73.21859 | -16.20586 | 39199 ft | 515 kts | 150° |
| 2026-05-04 08:43 | 73.15555 | -16.08813 | 39197 ft | 516 kts | 150° |
| 2026-05-04 08:43 | 73.09235 | -15.97109 | 39188 ft | 516 kts | 150° |
| 2026-05-04 08:44 | 73.02902 | -15.85482 | 39181 ft | 516 kts | 150° |
| 2026-05-04 08:46 | 72.77487 | -15.39753 | 39159 ft | 517 kts | 151° |
| 2026-05-04 08:46 | 72.71117 | -15.28526 | 39155 ft | 517 kts | 151° |
| 2026-05-04 08:47 | 72.64731 | -15.17360 | 39149 ft | 517 kts | 151° |
| 2026-05-04 08:47 | 72.58346 | -15.06282 | 39138 ft | 518 kts | 152° |
| 2026-05-04 08:48 | 72.51941 | -14.95259 | 39132 ft | 518 kts | 152° |
| 2026-05-04 08:48 | 72.45529 | -14.84322 | 39130 ft | 518 kts | 152° |
| 2026-05-04 08:49 | 72.39114 | -14.73459 | 39122 ft | 518 kts | 152° |
| 2026-05-04 08:50 | 72.17690 | -14.37809 | 39099 ft | 519 kts | 153° |
| 2026-05-04 08:51 | 72.11242 | -14.27259 | 39092 ft | 519 kts | 153° |
| 2026-05-04 08:51 | 72.04788 | -14.16788 | 39088 ft | 519 kts | 153° |
| 2026-05-04 08:52 | 71.98320 | -14.06370 | 39077 ft | 519 kts | 153° |
| 2026-05-04 08:52 | 71.91852 | -13.96037 | 39076 ft | 519 kts | 153° |
| 2026-05-04 08:54 | 71.65857 | -13.55292 | 39052 ft | 520 kts | 153° |
| 2026-05-04 08:55 | 71.59342 | -13.45277 | 39048 ft | 521 kts | 154° |
| 2026-05-04 08:55 | 71.52812 | -13.35314 | 39045 ft | 521 kts | 154° |
| 2026-05-04 09:01 | 70.83902 | -12.34613 | 38986 ft | 522 kts | 155° |
| 2026-05-04 09:01 | 70.77301 | -12.25370 | 38980 ft | 523 kts | 155° |
| 2026-05-04 09:02 | 70.70693 | -12.16186 | 38974 ft | 523 kts | 155° |
| 2026-05-04 09:02 | 70.64085 | -12.07068 | 38964 ft | 523 kts | 155° |
| 2026-05-04 09:03 | 70.57453 | -11.97986 | 38960 ft | 523 kts | 155° |
| 2026-05-04 09:03 | 70.50823 | -11.88970 | 38956 ft | 523 kts | 156° |
| 2026-05-04 09:04 | 70.44187 | -11.80010 | 38947 ft | 523 kts | 156° |
| 2026-05-04 09:04 | 70.37542 | -11.71101 | 38933 ft | 524 kts | 156° |
| 2026-05-04 09:05 | 70.30897 | -11.62256 | 38929 ft | 524 kts | 156° |
| 2026-05-04 09:05 | 70.24231 | -11.53449 | 38920 ft | 524 kts | 156° |
| 2026-05-04 09:06 | 70.17575 | -11.44715 | 38913 ft | 524 kts | 156° |
| 2026-05-04 09:08 | 69.90841 | -11.10249 | 38889 ft | 526 kts | 157° |
| 2026-05-04 09:08 | 69.84134 | -11.01755 | 38886 ft | 526 kts | 157° |
| 2026-05-04 09:09 | 69.77471 | -10.93373 | 38882 ft | 525 kts | 157° |
| 2026-05-04 09:09 | 69.70769 | -10.84998 | 38873 ft | 526 kts | 157° |
| 2026-05-04 09:10 | 69.64033 | -10.76642 | 38870 ft | 526 kts | 157° |
| 2026-05-04 09:10 | 69.57256 | -10.68290 | 38865 ft | 527 kts | 157° |
| 2026-05-04 09:11 | 69.50522 | -10.60052 | 38859 ft | 526 kts | 157° |
| 2026-05-04 09:11 | 69.43827 | -10.51920 | 38854 ft | 527 kts | 158° |
| 2026-05-04 09:12 | 69.37074 | -10.43770 | 38847 ft | 527 kts | 158° |
| 2026-05-04 09:14 | 69.09998 | -10.11646 | 38826 ft | 528 kts | 158° |
| 2026-05-04 09:14 | 69.03208 | -10.03723 | 38813 ft | 529 kts | 158° |
| 2026-05-04 09:15 | 68.96401 | -9.95956 | 38805 ft | 528 kts | 160° |
| 2026-05-04 09:15 | 68.89499 | -9.88913 | 38801 ft | 529 kts | 161° |
| 2026-05-04 09:17 | 68.58364 | -9.57782 | 38766 ft | 530 kts | 161° |
| 2026-05-04 09:18 | 68.51480 | -9.50955 | 38760 ft | 529 kts | 161° |
| 2026-05-04 09:18 | 68.44515 | -9.44099 | 38752 ft | 529 kts | 161° |
| 2026-05-04 09:19 | 68.37584 | -9.37325 | 38743 ft | 529 kts | 161° |
| 2026-05-04 09:19 | 68.30712 | -9.30651 | 38740 ft | 528 kts | 161° |
| 2026-05-04 09:20 | 68.23741 | -9.23920 | 38731 ft | 528 kts | 161° |
| 2026-05-04 09:20 | 68.16874 | -9.17333 | 38724 ft | 527 kts | 161° |
| 2026-05-04 09:21 | 68.09975 | -9.10756 | 38719 ft | 526 kts | 161° |
| 2026-05-04 09:21 | 68.03088 | -9.04234 | 38713 ft | 525 kts | 161° |
| 2026-05-04 09:22 | 67.96208 | -8.97763 | 38710 ft | 524 kts | 161° |
| 2026-05-04 09:22 | 67.89332 | -8.91334 | 38704 ft | 523 kts | 161° |
| 2026-05-04 09:23 | 67.82463 | -8.84950 | 38705 ft | 523 kts | 162° |
| 2026-05-04 09:23 | 67.75592 | -8.78606 | 38699 ft | 523 kts | 162° |
| 2026-05-04 09:25 | 67.48101 | -8.53609 | 38697 ft | 523 kts | 162° |
| 2026-05-04 09:26 | 67.41210 | -8.47439 | 38698 ft | 524 kts | 162° |
| 2026-05-04 09:26 | 67.34311 | -8.41299 | 38701 ft | 524 kts | 162° |
| 2026-05-04 09:27 | 67.27413 | -8.35197 | 38708 ft | 525 kts | 162° |
| 2026-05-04 09:27 | 67.20492 | -8.29116 | 38713 ft | 525 kts | 162° |
| 2026-05-04 09:28 | 67.13574 | -8.23073 | 38713 ft | 525 kts | 163° |
| 2026-05-04 09:28 | 67.06643 | -8.17052 | 38723 ft | 526 kts | 163° |
| 2026-05-04 09:29 | 66.99706 | -8.11062 | 38729 ft | 526 kts | 163° |
| 2026-05-04 09:29 | 66.92770 | -8.05109 | 38733 ft | 526 kts | 163° |
| 2026-05-04 09:30 | 66.85819 | -7.99180 | 38736 ft | 527 kts | 163° |
| 2026-05-04 09:30 | 66.78868 | -7.93290 | 38745 ft | 527 kts | 163° |
| 2026-05-04 09:31 | 66.71906 | -7.87423 | 38757 ft | 527 kts | 163° |
| 2026-05-04 09:31 | 66.64945 | -7.81588 | 38758 ft | 527 kts | 163° |
| 2026-05-04 09:32 | 66.57979 | -7.75789 | 38762 ft | 527 kts | 163° |
| 2026-05-04 09:34 | 66.30082 | -7.52899 | 38793 ft | 528 kts | 164° |
| 2026-05-04 09:34 | 66.23093 | -7.47246 | 38799 ft | 528 kts | 164° |
| 2026-05-04 09:35 | 66.16109 | -7.41631 | 38806 ft | 528 kts | 164° |
| 2026-05-04 09:35 | 66.10295 | -7.36980 | 38810 ft | 528 kts | 164° |
| 2026-05-04 09:37 | 65.82333 | -7.14925 | 38840 ft | 527 kts | 165° |
| 2026-05-04 09:38 | 65.75343 | -7.09492 | 38854 ft | 527 kts | 165° |
| 2026-05-04 09:38 | 65.68357 | -7.04092 | 38854 ft | 527 kts | 165° |
| 2026-05-04 09:39 | 65.61372 | -6.98727 | 38863 ft | 526 kts | 165° |
| 2026-05-04 09:39 | 65.54391 | -6.93390 | 38867 ft | 526 kts | 165° |
| 2026-05-04 09:40 | 65.47409 | -6.88083 | 38874 ft | 526 kts | 165° |
| 2026-05-04 09:40 | 65.40429 | -6.82807 | 38880 ft | 526 kts | 165° |
| 2026-05-04 09:42 | 65.12538 | -6.62017 | 38898 ft | 525 kts | 166° |
| 2026-05-04 09:43 | 65.05562 | -6.56889 | 38907 ft | 524 kts | 166° |
| 2026-05-04 09:43 | 64.98586 | -6.51788 | 38909 ft | 524 kts | 166° |
| 2026-05-04 09:44 | 64.91619 | -6.46723 | 38913 ft | 524 kts | 166° |
| 2026-05-04 09:46 | 64.63742 | -6.26726 | 38929 ft | 525 kts | 166° |
| 2026-05-04 09:46 | 64.56759 | -6.21784 | 38933 ft | 524 kts | 166° |
| 2026-05-04 09:47 | 64.49775 | -6.16868 | 38933 ft | 524 kts | 167° |
| 2026-05-04 09:49 | 64.21839 | -5.97463 | 38944 ft | 524 kts | 167° |
| 2026-05-04 09:51 | 63.97356 | -5.80790 | 38958 ft | 524 kts | 167° |
| 2026-05-04 09:51 | 63.90364 | -5.76084 | 38960 ft | 525 kts | 167° |
| 2026-05-04 09:52 | 63.83367 | -5.71399 | 38961 ft | 525 kts | 168° |
| 2026-05-04 09:52 | 63.76354 | -5.66729 | 38960 ft | 525 kts | 168° |
| 2026-05-04 09:53 | 63.69345 | -5.62084 | 38958 ft | 525 kts | 168° |
| 2026-05-04 09:53 | 63.62332 | -5.57461 | 38968 ft | 525 kts | 168° |
| 2026-05-04 09:54 | 63.55310 | -5.52856 | 38973 ft | 525 kts | 168° |
| 2026-05-04 09:54 | 63.48296 | -5.48280 | 38971 ft | 526 kts | 168° |
| 2026-05-04 09:55 | 63.41278 | -5.43724 | 38973 ft | 525 kts | 168° |
| 2026-05-04 09:55 | 63.34251 | -5.39186 | 38974 ft | 525 kts | 168° |
| 2026-05-04 09:56 | 63.27232 | -5.34676 | 38974 ft | 525 kts | 168° |
| 2026-05-04 09:56 | 63.20212 | -5.30188 | 38974 ft | 525 kts | 168° |
| 2026-05-04 09:57 | 63.13197 | -5.25726 | 38975 ft | 525 kts | 168° |
| 2026-05-04 09:57 | 63.06187 | -5.21289 | 38978 ft | 524 kts | 168° |
| 2026-05-04 09:58 | 62.99165 | -5.16867 | 38982 ft | 524 kts | 168° |
| 2026-05-04 09:58 | 62.92162 | -5.12479 | 38980 ft | 524 kts | 168° |
| 2026-05-04 10:00 | 62.64214 | -4.95181 | 38985 ft | 521 kts | 168° |
| 2026-05-04 10:04 | 62.15473 | -4.65814 | 38987 ft | 519 kts | 169° |
| 2026-05-04 10:04 | 62.08515 | -4.61700 | 39000 ft | 519 kts | 169° |
| 2026-05-04 10:05 | 62.01560 | -4.57608 | 38990 ft | 518 kts | 169° |
| 2026-05-04 10:05 | 61.94612 | -4.53541 | 38977 ft | 518 kts | 169° |
| 2026-05-04 10:06 | 61.87673 | -4.49498 | 38979 ft | 517 kts | 169° |
| 2026-05-04 10:06 | 61.80778 | -4.45499 | 38980 ft | 517 kts | 169° |
| 2026-05-04 10:08 | 61.56504 | -4.31568 | 38982 ft | 515 kts | 169° |
| 2026-05-04 10:08 | 61.49597 | -4.27646 | 38978 ft | 514 kts | 169° |
| 2026-05-04 10:09 | 61.42732 | -4.23765 | 38979 ft | 514 kts | 169° |
| 2026-05-04 10:09 | 61.35821 | -4.19875 | 38980 ft | 513 kts | 169° |
| 2026-05-04 10:10 | 61.28928 | -4.16013 | 38982 ft | 513 kts | 169° |
| 2026-05-04 10:10 | 61.22043 | -4.12175 | 38981 ft | 513 kts | 169° |
| 2026-05-04 10:11 | 61.15152 | -4.08349 | 38978 ft | 512 kts | 169° |
| 2026-05-04 10:11 | 61.08264 | -4.04543 | 38981 ft | 512 kts | 169° |
| 2026-05-04 10:12 | 61.01361 | -4.00817 | 39102 ft | 511 kts | 172° |
| 2026-05-04 10:12 | 60.97870 | -3.99672 | 39315 ft | 506 kts | 178° |
| 2026-05-04 10:12 | 60.94376 | -3.98861 | 39517 ft | 505 kts | 179° |
| 2026-05-04 10:13 | 60.90885 | -3.98164 | 39696 ft | 504 kts | 179° |
| 2026-05-04 10:13 | 60.87393 | -3.97522 | 39868 ft | 504 kts | 179° |
| 2026-05-04 10:13 | 60.83905 | -3.96900 | 40030 ft | 504 kts | 179° |
| 2026-05-04 10:13 | 60.80408 | -3.96275 | 40201 ft | 503 kts | 179° |
| 2026-05-04 10:14 | 60.76925 | -3.95645 | 40364 ft | 503 kts | 179° |
| 2026-05-04 10:14 | 60.73441 | -3.95007 | 40518 ft | 503 kts | 179° |
| 2026-05-04 10:16 | 60.49046 | -3.90496 | 40975 ft | 503 kts | 179° |
| 2026-05-04 10:16 | 60.45558 | -3.89857 | 40976 ft | 503 kts | 179° |
| 2026-05-04 10:16 | 60.38602 | -3.88585 | 40973 ft | 502 kts | 179° |
| 2026-05-04 10:17 | 60.31636 | -3.87317 | 40971 ft | 502 kts | 179° |
| 2026-05-04 10:19 | 60.03793 | -3.82304 | 40961 ft | 502 kts | 179° |
| 2026-05-04 10:19 | 59.96836 | -3.81064 | 40961 ft | 502 kts | 179° |
| 2026-05-04 10:20 | 59.89924 | -3.79838 | 40962 ft | 502 kts | 179° |
| 2026-05-04 10:20 | 59.82966 | -3.78609 | 40958 ft | 502 kts | 179° |
| 2026-05-04 10:21 | 59.76017 | -3.77386 | 40956 ft | 501 kts | 179° |
| 2026-05-04 10:21 | 59.69061 | -3.76168 | 40950 ft | 501 kts | 179° |
| 2026-05-04 10:22 | 59.59774 | -3.74548 | 40949 ft | 501 kts | 179° |
| 2026-05-04 10:23 | 59.52826 | -3.73343 | 40946 ft | 501 kts | 179° |
| 2026-05-04 10:25 | 59.25088 | -3.68580 | 40940 ft | 500 kts | 179° |
| 2026-05-04 10:25 | 59.18168 | -3.67404 | 40942 ft | 499 kts | 179° |
| 2026-05-04 10:26 | 59.11250 | -3.66232 | 40943 ft | 499 kts | 179° |
| 2026-05-04 10:26 | 59.04333 | -3.65066 | 40942 ft | 498 kts | 178° |
| 2026-05-04 10:27 | 58.97428 | -3.63907 | 40948 ft | 498 kts | 178° |
| 2026-05-04 10:27 | 58.90566 | -3.62759 | 40952 ft | 498 kts | 178° |
| 2026-05-04 10:28 | 58.83673 | -3.61611 | 40955 ft | 498 kts | 178° |
| 2026-05-04 10:28 | 58.76772 | -3.60467 | 40958 ft | 497 kts | 178° |
| 2026-05-04 10:29 | 58.69872 | -3.59327 | 40958 ft | 497 kts | 178° |
| 2026-05-04 10:29 | 58.62976 | -3.58192 | 40960 ft | 497 kts | 178° |
| 2026-05-04 10:30 | 58.56082 | -3.57062 | 40961 ft | 497 kts | 178° |
| 2026-05-04 10:30 | 58.49210 | -3.55939 | 40962 ft | 497 kts | 178° |
| 2026-05-04 10:31 | 58.42309 | -3.54817 | 40961 ft | 496 kts | 178° |
| 2026-05-04 10:32 | 58.18236 | -3.50937 | 40961 ft | 495 kts | 178° |
| 2026-05-04 10:33 | 58.11371 | -3.49839 | 40968 ft | 495 kts | 178° |
| 2026-05-04 10:33 | 58.04508 | -3.48746 | 40977 ft | 495 kts | 178° |
| 2026-05-04 10:34 | 57.97645 | -3.47657 | 40980 ft | 495 kts | 178° |
| 2026-05-04 10:34 | 57.90783 | -3.46573 | 40982 ft | 495 kts | 178° |
| 2026-05-04 10:35 | 57.83923 | -3.45494 | 40986 ft | 495 kts | 178° |
| 2026-05-04 10:35 | 57.77110 | -3.44426 | 40990 ft | 495 kts | 178° |
| 2026-05-04 10:36 | 57.70252 | -3.43354 | 40993 ft | 495 kts | 178° |
| 2026-05-04 10:36 | 57.63387 | -3.42286 | 40992 ft | 495 kts | 178° |
| 2026-05-04 10:37 | 57.56528 | -3.41223 | 40990 ft | 495 kts | 177° |
| 2026-05-04 10:37 | 57.49669 | -3.40164 | 40991 ft | 495 kts | 177° |
| 2026-05-04 10:39 | 57.25678 | -3.36492 | 40990 ft | 494 kts | 177° |
| 2026-05-04 10:40 | 57.18828 | -3.35451 | 40992 ft | 494 kts | 177° |
| 2026-05-04 10:40 | 57.11983 | -3.34413 | 40993 ft | 493 kts | 177° |
| 2026-05-04 10:41 | 57.05146 | -3.33383 | 40994 ft | 493 kts | 177° |
| 2026-05-04 10:41 | 56.98309 | -3.32358 | 41002 ft | 493 kts | 177° |
| 2026-05-04 10:42 | 56.91489 | -3.31338 | 41000 ft | 492 kts | 177° |
| 2026-05-04 10:42 | 56.84655 | -3.30319 | 40996 ft | 492 kts | 177° |
| 2026-05-04 10:43 | 56.77833 | -3.29307 | 40999 ft | 492 kts | 177° |
| 2026-05-04 10:45 | 56.50634 | -3.25302 | 41019 ft | 490 kts | 177° |
| 2026-05-04 10:45 | 56.43840 | -3.24311 | 41015 ft | 490 kts | 177° |
| 2026-05-04 10:46 | 56.37037 | -3.23322 | 41015 ft | 490 kts | 177° |
| 2026-05-04 10:46 | 56.30239 | -3.22338 | 41013 ft | 490 kts | 177° |
| 2026-05-04 10:47 | 56.23457 | -3.21360 | 41000 ft | 490 kts | 177° |
| 2026-05-04 10:47 | 56.16662 | -3.20383 | 41019 ft | 489 kts | 177° |
| 2026-05-04 10:49 | 55.89579 | -3.16520 | 41017 ft | 487 kts | 177° |
| 2026-05-04 10:50 | 55.82832 | -3.15568 | 41023 ft | 487 kts | 177° |
| 2026-05-04 10:52 | 55.55842 | -3.11788 | 41031 ft | 486 kts | 177° |
| 2026-05-04 10:52 | 55.49105 | -3.10852 | 41034 ft | 486 kts | 177° |
| 2026-05-04 10:54 | 55.22170 | -3.07146 | 41044 ft | 485 kts | 177° |
| 2026-05-04 10:56 | 54.95366 | -3.03506 | 41046 ft | 483 kts | 176° |
| 2026-05-04 10:57 | 54.88664 | -3.02603 | 41051 ft | 483 kts | 176° |
| 2026-05-04 10:57 | 54.81970 | -3.01702 | 41056 ft | 483 kts | 176° |
| 2026-05-04 10:58 | 54.75272 | -3.00807 | 41060 ft | 482 kts | 176° |
| 2026-05-04 10:58 | 54.68581 | -2.99916 | 41058 ft | 482 kts | 176° |
| 2026-05-04 10:59 | 54.61892 | -2.99027 | 41057 ft | 482 kts | 176° |
| 2026-05-04 10:59 | 54.55210 | -2.98141 | 41057 ft | 482 kts | 176° |
| 2026-05-04 11:00 | 54.48516 | -2.97257 | 41056 ft | 482 kts | 176° |
| 2026-05-04 11:02 | 54.21765 | -2.93754 | 41065 ft | 482 kts | 176° |
| 2026-05-04 11:05 | 53.74868 | -2.62568 | 41070 ft | 480 kts | 158° |
| 2026-05-04 11:06 | 53.68758 | -2.58200 | 41068 ft | 480 kts | 158° |
| 2026-05-04 11:06 | 53.62565 | -2.53795 | 41068 ft | 483 kts | 158° |
| 2026-05-04 11:10 | 53.20268 | -2.24024 | 41071 ft | 482 kts | 159° |
| 2026-05-04 11:12 | 52.95572 | -2.06949 | 41065 ft | 481 kts | 159° |
| 2026-05-04 11:12 | 52.89348 | -2.02677 | 41061 ft | 481 kts | 159° |
| 2026-05-04 11:13 | 52.83199 | -1.98470 | 41061 ft | 481 kts | 159° |
| 2026-05-04 11:13 | 52.76980 | -1.94227 | 41060 ft | 481 kts | 159° |
| 2026-05-04 11:14 | 52.70785 | -1.90014 | 41056 ft | 481 kts | 159° |
| 2026-05-04 11:16 | 52.46030 | -1.73308 | 41047 ft | 481 kts | 159° |
| 2026-05-04 11:16 | 52.39886 | -1.69193 | 41048 ft | 481 kts | 159° |
| 2026-05-04 11:17 | 52.33664 | -1.64998 | 41044 ft | 481 kts | 157° |
| 2026-05-04 11:19 | 52.09830 | -1.45220 | 41048 ft | 481 kts | 155° |
| 2026-05-04 11:19 | 52.03836 | -1.40359 | 41041 ft | 481 kts | 155° |
| 2026-05-04 11:20 | 51.97845 | -1.35516 | 41043 ft | 481 kts | 155° |
| 2026-05-04 11:20 | 51.91857 | -1.30679 | 41050 ft | 481 kts | 155° |
| 2026-05-04 11:22 | 51.67889 | -1.11494 | 41026 ft | 480 kts | 155° |
| 2026-05-04 11:23 | 51.61930 | -1.06596 | 41024 ft | 481 kts | 150° |
| 2026-05-04 11:25 | 51.42328 | -0.86017 | 41017 ft | 479 kts | 158° |
| 2026-05-04 11:25 | 51.36168 | -0.81949 | 41019 ft | 479 kts | 160° |
| 2026-05-04 11:27 | 51.08297 | -0.63639 | 40410 ft | 487 kts | 148° |
| 2026-05-04 11:28 | 51.05565 | -0.60398 | 40166 ft | 490 kts | 139° |
| 2026-05-04 11:28 | 51.03204 | -0.56482 | 39933 ft | 492 kts | 129° |
| 2026-05-04 11:28 | 51.01241 | -0.52042 | 39705 ft | 492 kts | 124° |
| 2026-05-04 11:28 | 50.99417 | -0.47442 | 39480 ft | 493 kts | 122° |
| 2026-05-04 11:29 | 50.97634 | -0.42800 | 39257 ft | 493 kts | 122° |
| 2026-05-04 11:29 | 50.95863 | -0.38158 | 39037 ft | 492 kts | 122° |
| 2026-05-04 11:29 | 50.94078 | -0.33503 | 38819 ft | 492 kts | 122° |
| 2026-05-04 11:29 | 50.92293 | -0.28887 | 38540 ft | 492 kts | 123° |
| 2026-05-04 11:31 | 50.79669 | 0.03150 | 36650 ft | 488 kts | 124° |
| 2026-05-04 11:33 | 50.63229 | 0.28713 | 34942 ft | 469 kts | 144° |
| 2026-05-04 11:33 | 50.60652 | 0.31960 | 34700 ft | 467 kts | 144° |
| 2026-05-04 11:33 | 50.58121 | 0.35158 | 34464 ft | 466 kts | 144° |
| 2026-05-04 11:34 | 50.55631 | 0.38311 | 34223 ft | 465 kts | 144° |
| 2026-05-04 11:34 | 50.53112 | 0.41504 | 33991 ft | 463 kts | 144° |
| 2026-05-04 11:34 | 50.50632 | 0.44650 | 33734 ft | 454 kts | 144° |
| 2026-05-04 11:34 | 50.48196 | 0.47738 | 33458 ft | 446 kts | 144° |
| 2026-05-04 11:35 | 50.45779 | 0.50798 | 32942 ft | 447 kts | 144° |
| 2026-05-04 11:35 | 50.43353 | 0.53863 | 32170 ft | 449 kts | 144° |
| 2026-05-04 11:35 | 50.40911 | 0.56935 | 31353 ft | 452 kts | 144° |
| 2026-05-04 11:35 | 50.38416 | 0.60069 | 30493 ft | 455 kts | 144° |
| 2026-05-04 11:36 | 50.35937 | 0.63178 | 29562 ft | 459 kts | 144° |
| 2026-05-04 11:36 | 50.33441 | 0.66312 | 28677 ft | 461 kts | 144° |
| 2026-05-04 11:36 | 50.30936 | 0.69457 | 28130 ft | 462 kts | 144° |
| 2026-05-04 11:36 | 50.28465 | 0.72552 | 27654 ft | 460 kts | 144° |
| 2026-05-04 11:37 | 50.25976 | 0.75665 | 27163 ft | 457 kts | 144° |
| 2026-05-04 11:37 | 50.23473 | 0.78792 | 26680 ft | 453 kts | 144° |
| 2026-05-04 11:37 | 50.21019 | 0.81853 | 26225 ft | 450 kts | 144° |
| 2026-05-04 11:37 | 50.18581 | 0.84890 | 25766 ft | 447 kts | 143° |
| 2026-05-04 11:38 | 50.16157 | 0.87899 | 25319 ft | 444 kts | 143° |
| 2026-05-04 11:38 | 50.13792 | 0.90837 | 24886 ft | 433 kts | 143° |
| 2026-05-04 11:38 | 50.11518 | 0.93665 | 24469 ft | 404 kts | 143° |
| 2026-05-04 11:38 | 50.09353 | 0.96354 | 24062 ft | 387 kts | 144° |
| 2026-05-04 11:39 | 50.07286 | 0.98908 | 23666 ft | 382 kts | 144° |
| 2026-05-04 11:39 | 50.05093 | 1.01260 | 23266 ft | 374 kts | 153° |
| 2026-05-04 11:40 | 49.92655 | 1.10669 | 20927 ft | 320 kts | 155° |
| 2026-05-04 11:41 | 49.90595 | 1.12211 | 20543 ft | 335 kts | 155° |
| 2026-05-04 11:41 | 49.88483 | 1.13791 | 20144 ft | 339 kts | 155° |
| 2026-05-04 11:41 | 49.86343 | 1.15394 | 19773 ft | 344 kts | 155° |
| 2026-05-04 11:41 | 49.84190 | 1.17006 | 19403 ft | 343 kts | 155° |
| 2026-05-04 11:42 | 49.82054 | 1.18605 | 19037 ft | 340 kts | 155° |
| 2026-05-04 11:42 | 49.79933 | 1.20191 | 18680 ft | 337 kts | 155° |
| 2026-05-04 11:42 | 49.77819 | 1.21768 | 18328 ft | 336 kts | 155° |
| 2026-05-04 11:42 | 49.75716 | 1.23334 | 17932 ft | 336 kts | 155° |
| 2026-05-04 11:43 | 49.73617 | 1.24900 | 17530 ft | 334 kts | 155° |
| 2026-05-04 11:43 | 49.71525 | 1.26457 | 17126 ft | 333 kts | 155° |
| 2026-05-04 11:43 | 49.69451 | 1.27999 | 16744 ft | 330 kts | 155° |
| 2026-05-04 11:43 | 49.67388 | 1.29531 | 16345 ft | 328 kts | 155° |
| 2026-05-04 11:44 | 49.65338 | 1.31052 | 15969 ft | 326 kts | 155° |
| 2026-05-04 11:44 | 49.63303 | 1.32561 | 15600 ft | 324 kts | 155° |
| 2026-05-04 11:44 | 49.61279 | 1.34060 | 15236 ft | 322 kts | 155° |
| 2026-05-04 11:44 | 49.59271 | 1.35545 | 14858 ft | 319 kts | 155° |
| 2026-05-04 11:45 | 49.57276 | 1.37021 | 14499 ft | 317 kts | 155° |
| 2026-05-04 11:45 | 49.55291 | 1.38487 | 14137 ft | 315 kts | 155° |
| 2026-05-04 11:45 | 49.53341 | 1.39926 | 13657 ft | 303 kts | 155° |
| 2026-05-04 11:45 | 49.51484 | 1.41296 | 13153 ft | 289 kts | 155° |
| 2026-05-04 11:46 | 49.49705 | 1.42606 | 12644 ft | 277 kts | 155° |
| 2026-05-04 11:46 | 49.47995 | 1.43865 | 12138 ft | 268 kts | 155° |
| 2026-05-04 11:46 | 49.46305 | 1.45107 | 11647 ft | 280 kts | 155° |
| 2026-05-04 11:46 | 49.44503 | 1.46429 | 11315 ft | 291 kts | 155° |
| 2026-05-04 11:47 | 49.42680 | 1.47768 | 11056 ft | 291 kts | 155° |
| 2026-05-04 11:47 | 49.40859 | 1.49104 | 10813 ft | 289 kts | 154° |
| 2026-05-04 11:47 | 49.39049 | 1.50430 | 10579 ft | 288 kts | 154° |
| 2026-05-04 11:47 | 49.37245 | 1.51752 | 10331 ft | 287 kts | 154° |
| 2026-05-04 11:48 | 49.35453 | 1.53063 | 10083 ft | 286 kts | 154° |
| 2026-05-04 11:48 | 49.33658 | 1.54375 | 9997 ft | 286 kts | 154° |
| 2026-05-04 11:48 | 49.31899 | 1.55791 | 9984 ft | 286 kts | 146° |
| 2026-05-04 11:48 | 49.30495 | 1.57923 | 9988 ft | 286 kts | 122° |
| 2026-05-04 11:49 | 49.29808 | 1.60757 | 9988 ft | 286 kts | 99° |
| 2026-05-04 11:49 | 49.29630 | 1.63781 | 9982 ft | 287 kts | 94° |
| 2026-05-04 11:49 | 49.29524 | 1.66838 | 9979 ft | 287 kts | 94° |
| 2026-05-04 11:49 | 49.29409 | 1.69898 | 9979 ft | 287 kts | 94° |
| 2026-05-04 11:50 | 49.29284 | 1.72942 | 9977 ft | 287 kts | 94° |
| 2026-05-04 11:50 | 49.29155 | 1.75945 | 9839 ft | 277 kts | 94° |
| 2026-05-04 11:50 | 49.28942 | 1.78823 | 9676 ft | 267 kts | 103° |
| 2026-05-04 11:50 | 49.28578 | 1.80583 | 9517 ft | 257 kts | 114° |
| 2026-05-04 11:51 | 49.27626 | 1.82829 | 8946 ft | 251 kts | 133° |
| 2026-05-04 11:51 | 49.26361 | 1.84641 | 8326 ft | 248 kts | 139° |
| 2026-05-04 11:51 | 49.25046 | 1.86345 | 7730 ft | 246 kts | 140° |
| 2026-05-04 11:51 | 49.23737 | 1.88022 | 7145 ft | 244 kts | 140° |
| 2026-05-04 11:52 | 49.22441 | 1.89681 | 6578 ft | 242 kts | 140° |
| 2026-05-04 11:52 | 49.21153 | 1.91328 | 5990 ft | 240 kts | 139° |
| 2026-05-04 11:52 | 49.19878 | 1.92957 | 5410 ft | 238 kts | 139° |
| 2026-05-04 11:52 | 49.18607 | 1.94580 | 4842 ft | 236 kts | 140° |
| 2026-05-04 11:53 | 49.17350 | 1.96182 | 4282 ft | 233 kts | 139° |
| 2026-05-04 11:53 | 49.16122 | 1.97748 | 4006 ft | 224 kts | 139° |
| 2026-05-04 11:53 | 49.14967 | 1.99219 | 3983 ft | 210 kts | 139° |
| 2026-05-04 11:53 | 49.13849 | 2.00644 | 3993 ft | 208 kts | 139° |
| 2026-05-04 11:55 | 49.06520 | 2.09951 | 3964 ft | 187 kts | 140° |
| 2026-05-04 11:55 | 49.05558 | 2.11165 | 3961 ft | 172 kts | 140° |
| 2026-05-04 11:56 | 49.04656 | 2.12306 | 3983 ft | 167 kts | 140° |
| 2026-05-04 11:56 | 49.03744 | 2.13460 | 3971 ft | 175 kts | 139° |
| 2026-05-04 11:56 | 49.02799 | 2.14660 | 3961 ft | 178 kts | 139° |
| 2026-05-04 11:56 | 49.01841 | 2.15877 | 3962 ft | 179 kts | 140° |
| 2026-05-04 11:57 | 49.00994 | 2.17252 | 3943 ft | 180 kts | 119° |
| 2026-05-04 11:57 | 49.00753 | 2.19088 | 3963 ft | 173 kts | 90° |
| 2026-05-04 11:57 | 49.00822 | 2.20882 | 3978 ft | 167 kts | 85° |
| 2026-05-04 11:57 | 49.00912 | 2.22642 | 3973 ft | 167 kts | 86° |
| 2026-05-04 11:58 | 49.01005 | 2.24408 | 3968 ft | 168 kts | 85° |
| 2026-05-04 11:58 | 49.01092 | 2.26178 | 3817 ft | 167 kts | 86° |
| 2026-05-04 11:58 | 49.01175 | 2.27931 | 3594 ft | 163 kts | 86° |
| 2026-05-04 11:58 | 49.01265 | 2.29597 | 3368 ft | 152 kts | 86° |
| 2026-05-04 11:59 | 49.01348 | 2.31147 | 3165 ft | 142 kts | 86° |
| 2026-05-04 11:59 | 49.01425 | 2.32608 | 2972 ft | 137 kts | 86° |
| 2026-05-04 11:59 | 49.01501 | 2.34059 | 2791 ft | 138 kts | 86° |
| 2026-05-04 11:59 | 49.01578 | 2.35516 | 2595 ft | 138 kts | 86° |
| 2026-05-04 12:00 | 49.01655 | 2.36969 | 2418 ft | 137 kts | 86° |
| 2026-05-04 12:00 | 49.01731 | 2.38419 | 2231 ft | 138 kts | 86° |
| 2026-05-04 12:00 | 49.01807 | 2.39869 | 2053 ft | 138 kts | 86° |
| 2026-05-04 12:00 | 49.01883 | 2.41302 | 1861 ft | 137 kts | 86° |
| 2026-05-04 12:01 | 49.01960 | 2.42757 | 1685 ft | 136 kts | 86° |
| 2026-05-04 12:01 | 49.02039 | 2.44193 | 1471 ft | 136 kts | 86° |
| 2026-05-04 12:02 | 49.02488 | 2.52666 | 387 ft | 133 kts | 85° |
| 2026-05-04 12:03 | 49.02554 | 2.53953 | 365 ft | 102 kts | 85° |
| 2026-05-04 12:03 | 49.02538 | 2.54613 | 367 ft | 45 kts | 105° |
| 2026-05-04 12:03 | 49.02484 | 2.54917 | 365 ft | 0 kts | 105° |
| 2026-05-04 12:04 | 49.02475 | 2.54963 | 365 ft | 13 kts | 105° |
| 2026-05-04 12:04 | 49.02448 | 2.55137 | 366 ft | 17 kts | 96° |
| 2026-05-04 12:04 | 49.02455 | 2.55322 | 366 ft | 18 kts | 84° |
| 2026-05-04 12:04 | 49.02465 | 2.55511 | 367 ft | 18 kts | 89° |
| 2026-05-04 12:05 | 49.02386 | 2.55617 | 365 ft | 17 kts | 175° |
| 2026-05-04 12:05 | 49.02266 | 2.55632 | 365 ft | 18 kts | 175° |
| 2026-05-04 12:05 | 49.02187 | 2.55642 | 367 ft | 0 kts | 175° |
| 2026-05-04 12:07 | 49.02129 | 2.55648 | 366 ft | 15 kts | 182° |
| 2026-05-04 12:07 | 49.02070 | 2.55551 | 366 ft | 14 kts | 252° |
| 2026-05-04 12:08 | 49.02057 | 2.55395 | 361 ft | 16 kts | 265° |
| 2026-05-04 12:08 | 49.02048 | 2.55216 | 361 ft | 17 kts | 266° |
| 2026-05-04 12:08 | 49.02028 | 2.55092 | 368 ft | 6 kts | 224° |
| 2026-05-04 12:08 | 49.01953 | 2.55085 | 366 ft | 19 kts | 178° |
| 2026-05-04 12:09 | 49.01867 | 2.55024 | 366 ft | 13 kts | 238° |
| 2026-05-04 12:09 | 49.01851 | 2.54893 | 361 ft | 10 kts | 265° |
| 2026-05-04 12:09 | 49.01845 | 2.54776 | 367 ft | 12 kts | 265° |
| 2026-05-04 12:09 | 49.01838 | 2.54634 | 361 ft | 15 kts | 265° |
| 2026-05-04 12:10 | 49.01829 | 2.54473 | 367 ft | 16 kts | 266° |
| 2026-05-04 12:10 | 49.01823 | 2.54359 | 361 ft | 11 kts | 265° |
| 2026-05-04 12:10 | 49.01814 | 2.54284 | 366 ft | 1 kts | 232° |
| 2026-05-04 12:10 | 49.01799 | 2.54279 | 369 ft | 5 kts | 188° |
| 2026-05-04 12:11 | 49.01791 | 2.54305 | 368 ft | 7 kts | 103° |
| 2026-05-04 12:11 | 49.01783 | 2.54361 | 364 ft | 2 kts | 102° |
| 2026-05-04 12:11 | 49.01780 | 2.54387 | 365 ft | 0 kts | 102° |
| 2026-05-04 12:12 | 49.01777 | 2.54401 | 363 ft | 3 kts | 104° |
| 2026-05-04 12:12 | 49.01767 | 2.54454 | 362 ft | 7 kts | 108° |
| 2026-05-04 12:12 | 49.01747 | 2.54500 | 369 ft | 2 kts | 158° |
| 2026-05-04 12:12 | 49.01734 | 2.54492 | 366 ft | 7 kts | 198° |
| 2026-05-04 12:13 | 49.01718 | 2.54472 | 368 ft | 0 kts | 227° |
| 2026-05-04 12:14 | 49.01691 | 2.54385 | 364 ft | 0 kts | 247° |